createdAt,value
2019-02-22T00:02:01.172Z,66.10
2019-02-22T00:04:30.599Z,68.83
2019-02-22T00:07:00.056Z,70.13
2019-02-22T00:09:29.489Z,72.07
2019-02-22T00:11:58.911Z,73.97
2019-02-22T00:14:28.333Z,74.73
2019-02-22T00:16:57.772Z,74.13
2019-02-22T00:19:27.199Z,72.97
2019-02-22T00:21:56.640Z,72.87
2019-02-22T00:24:26.047Z,72.67
2019-02-22T00:26:55.505Z,76.30
2019-02-22T00:29:24.926Z,72.37
2019-02-22T00:31:54.361Z,76.20
2019-02-22T00:34:23.845Z,73.53
2019-02-22T00:36:53.299Z,73.10
2019-02-22T00:39:22.777Z,75.30
2019-02-22T00:41:52.199Z,78.57
2019-02-22T00:44:21.638Z,72.63
2019-02-22T00:46:51.094Z,72.33
2019-02-22T00:49:20.530Z,73.27
2019-02-22T00:51:49.948Z,72.53
2019-02-22T00:54:19.387Z,67.33
2019-02-22T00:56:48.906Z,69.33
2019-02-22T00:59:18.407Z,68.07
2019-02-22T01:01:47.975Z,69.40
2019-02-22T01:04:17.439Z,70.20
2019-02-22T01:06:46.888Z,67.30
2019-02-22T01:09:16.335Z,70.00
2019-02-22T01:11:45.891Z,67.33
2019-02-22T01:14:15.356Z,68.80
2019-02-22T01:16:44.771Z,69.07
2019-02-22T01:19:14.203Z,70.63
2019-02-22T01:21:43.631Z,71.77
2019-02-22T01:24:13.064Z,74.23
2019-02-22T01:26:42.480Z,69.93
2019-02-22T01:29:11.885Z,70.93
2019-02-22T01:31:41.301Z,75.33
2019-02-22T01:34:10.730Z,73.17
2019-02-22T01:36:52.800Z,71.23
2019-02-22T01:39:22.236Z,74.50
2019-02-22T01:41:51.645Z,74.80
2019-02-22T01:44:22.345Z,73.63
2019-02-22T01:46:51.784Z,74.17
2019-02-22T01:49:21.216Z,73.13
2019-02-22T01:51:50.724Z,75.23
2019-02-22T01:54:20.159Z,75.00
2019-02-22T01:56:49.630Z,77.13
2019-02-22T01:59:19.316Z,76.27
2019-02-22T02:01:48.782Z,79.57
2019-02-22T02:04:18.290Z,78.17
2019-02-22T02:06:47.782Z,79.60
2019-02-22T02:09:20.127Z,81.83
2019-02-22T02:11:49.566Z,76.67
2019-02-22T02:14:19.043Z,78.13
2019-02-22T02:16:52.541Z,80.73
2019-02-22T02:19:22.029Z,81.17
2019-02-22T02:21:51.523Z,77.50
2019-02-22T02:24:21.145Z,76.63
2019-02-22T02:26:50.545Z,77.37
2019-02-22T02:29:20.003Z,75.47
2019-02-22T02:31:49.572Z,75.90
2019-02-22T02:34:19.067Z,76.37
2019-02-22T02:36:48.543Z,72.13
2019-02-22T02:39:17.957Z,74.17
2019-02-22T02:41:47.396Z,77.57
2019-02-22T02:44:19.442Z,75.90
2019-02-22T02:46:48.874Z,79.40
2019-02-22T02:49:18.334Z,75.47
2019-02-22T02:51:47.751Z,76.10
2019-02-22T02:54:17.173Z,79.37
2019-02-22T02:56:49.504Z,77.67
2019-02-22T02:59:18.913Z,79.07
2019-02-22T03:01:49.591Z,78.67
2019-02-22T03:04:18.989Z,80.20
2019-02-22T03:06:50.106Z,78.17
2019-02-22T03:09:19.560Z,79.27
2019-02-22T03:11:48.996Z,77.80
2019-02-22T03:14:18.560Z,78.93
2019-02-22T03:16:48.032Z,75.83
2019-02-22T03:19:17.464Z,75.37
2019-02-22T03:21:46.967Z,78.80
2019-02-22T03:24:16.478Z,79.03
2019-02-22T03:26:45.935Z,75.93
2019-02-22T03:29:15.344Z,77.83
2019-02-22T03:31:44.842Z,79.63
2019-02-22T03:34:14.257Z,78.50
2019-02-22T03:36:43.704Z,79.63
2019-02-22T03:39:15.922Z,77.70
2019-02-22T03:41:45.465Z,78.90
2019-02-22T03:44:14.973Z,76.50
2019-02-22T03:46:44.444Z,75.37
2019-02-22T03:49:13.847Z,80.27
2019-02-22T03:51:43.403Z,74.23
2019-02-22T03:54:12.903Z,75.83
2019-02-22T03:56:42.492Z,75.47
2019-02-22T03:59:11.998Z,75.63
2019-02-22T04:01:41.425Z,77.50
2019-02-22T04:04:10.967Z,75.43
2019-02-22T04:06:40.440Z,78.73
2019-02-22T04:09:10.431Z,78.13
2019-02-22T04:11:45.571Z,77.60
2019-02-22T04:14:11.187Z,79.37
2019-02-22T04:16:40.602Z,83.03
2019-02-22T04:19:10.031Z,80.47
2019-02-22T04:21:39.474Z,81.33
2019-02-22T04:24:08.983Z,82.63
2019-02-22T04:26:38.516Z,87.50
2019-02-22T04:29:09.632Z,84.60
2019-02-22T04:31:41.202Z,86.43
2019-02-22T04:34:10.710Z,86.67
2019-02-22T04:36:40.128Z,90.20
2019-02-22T04:39:09.609Z,88.30
2019-02-22T04:41:39.015Z,90.90
2019-02-22T04:44:08.485Z,89.63
2019-02-22T04:46:37.986Z,92.43
2019-02-22T04:49:07.418Z,94.50
2019-02-22T04:51:36.835Z,96.27
2019-02-22T04:54:06.266Z,93.37
2019-02-22T04:56:35.706Z,99.57
2019-02-22T04:59:05.144Z,103.77
2019-02-22T05:01:34.615Z,99.47
2019-02-22T05:04:04.056Z,97.77
2019-02-22T05:06:33.574Z,100.87
2019-02-22T05:09:04.408Z,99.07
2019-02-22T05:11:33.843Z,99.43
2019-02-22T05:14:03.264Z,100.73
2019-02-22T05:16:36.473Z,101.53
2019-02-22T05:19:05.964Z,103.33
2019-02-22T05:21:36.699Z,102.57
2019-02-22T05:24:07.007Z,102.60
2019-02-22T05:26:36.425Z,103.80
2019-02-22T05:29:05.943Z,98.73
2019-02-22T05:31:36.354Z,94.53
2019-02-22T05:34:05.780Z,96.50
2019-02-22T05:36:35.297Z,93.17
2019-02-22T05:39:18.563Z,95.70
2019-02-22T05:41:38.538Z,96.60
2019-02-22T05:44:07.949Z,97.93
2019-02-22T05:46:37.353Z,97.60
2019-02-22T05:49:06.876Z,98.10
2019-02-22T05:51:36.494Z,96.20
2019-02-22T05:54:08.723Z,97.27
2019-02-22T05:56:38.180Z,100.20
2019-02-22T05:59:07.636Z,98.83
2019-02-22T06:01:37.962Z,97.13
2019-02-22T06:04:07.522Z,95.83
2019-02-22T06:06:37.163Z,97.20
2019-02-22T06:09:06.892Z,98.97
2019-02-22T06:11:36.339Z,95.57
2019-02-22T06:14:05.758Z,96.50
2019-02-22T06:16:36.784Z,95.23
2019-02-22T06:19:06.221Z,94.17
2019-02-22T06:21:35.742Z,97.63
2019-02-22T06:24:05.194Z,95.80
2019-02-22T06:26:34.639Z,95.17
2019-02-22T06:29:04.131Z,100.97
2019-02-22T06:31:33.543Z,94.07
2019-02-22T06:34:02.955Z,96.40
2019-02-22T06:36:32.384Z,102.90
2019-02-22T06:39:01.862Z,95.80
2019-02-22T06:41:31.377Z,95.47
2019-02-22T06:44:00.938Z,96.87
2019-02-22T06:46:30.538Z,92.13
2019-02-22T06:49:00.042Z,93.43
2019-02-22T06:51:29.638Z,95.83
2019-02-22T06:53:59.063Z,95.80
2019-02-22T06:56:28.511Z,95.43
2019-02-22T06:58:58.872Z,94.73
2019-02-22T07:01:28.474Z,95.83
2019-02-22T07:03:57.942Z,95.03
2019-02-22T07:06:27.403Z,95.57
2019-02-22T07:08:57.321Z,96.57
2019-02-22T07:11:28.529Z,94.47
2019-02-22T07:13:57.995Z,93.17
2019-02-22T07:16:29.671Z,92.40
2019-02-22T07:18:59.167Z,92.50
2019-02-22T07:21:38.860Z,89.03
2019-02-22T07:23:59.689Z,89.13
2019-02-22T07:26:29.196Z,90.33
2019-02-22T07:28:58.633Z,97.70
2019-02-22T07:31:28.102Z,93.53
2019-02-22T07:33:58.421Z,98.27
2019-02-22T07:36:27.889Z,93.73
2019-02-22T07:38:57.337Z,96.33
2019-02-22T07:41:26.847Z,94.60
2019-02-22T07:43:56.254Z,95.73
2019-02-22T07:46:25.983Z,95.83
2019-02-22T07:48:55.665Z,91.97
2019-02-22T07:51:25.369Z,85.63
2019-02-22T07:53:54.827Z,86.67
2019-02-22T07:56:24.391Z,83.33
2019-02-22T07:58:53.927Z,83.53
2019-02-22T08:01:23.604Z,84.07
2019-02-22T08:03:53.106Z,83.60
2019-02-22T08:06:22.782Z,80.27
2019-02-22T08:08:52.223Z,83.10
2019-02-22T08:11:24.697Z,79.60
2019-02-22T08:13:54.104Z,78.67
2019-02-22T08:16:23.613Z,77.90
2019-02-22T08:19:00.971Z,76.43
2019-02-22T08:21:24.263Z,78.87
2019-02-22T08:23:53.698Z,79.20
2019-02-22T08:26:23.183Z,81.83
2019-02-22T08:28:52.671Z,79.80
2019-02-22T08:31:22.083Z,75.53
2019-02-22T08:33:57.157Z,77.43
2019-02-22T08:36:26.679Z,73.83
2019-02-22T08:38:56.190Z,72.00
2019-02-22T08:41:25.713Z,70.47
2019-02-22T08:43:55.664Z,77.40
2019-02-22T08:46:25.580Z,78.43
2019-02-22T08:48:54.995Z,83.07
2019-02-22T08:51:24.498Z,81.63
2019-02-22T08:53:54.107Z,78.07
2019-02-22T08:56:23.596Z,80.90
2019-02-22T08:58:53.224Z,78.03
2019-02-22T09:01:22.657Z,72.73
2019-02-22T09:03:53.075Z,78.67
2019-02-22T09:06:22.619Z,83.73
2019-02-22T09:08:52.092Z,79.00
2019-02-22T09:11:21.630Z,78.20
2019-02-22T09:13:51.133Z,77.90
2019-02-22T09:16:20.573Z,79.30
2019-02-22T09:18:50.059Z,80.00
2019-02-22T09:21:19.582Z,76.93
2019-02-22T09:24:08.388Z,71.43
2019-02-22T09:26:37.806Z,72.03
2019-02-22T09:29:07.317Z,64.47
2019-02-22T09:31:36.764Z,62.63
2019-02-22T09:34:06.233Z,58.97
2019-02-22T09:36:35.668Z,68.87
2019-02-22T09:39:05.538Z,60.53
2019-02-22T09:41:35.169Z,62.33
2019-02-22T09:44:04.607Z,57.67
2019-02-22T09:46:34.071Z,48.83
2019-02-22T09:49:03.646Z,50.33
2019-02-22T09:51:33.122Z,49.03
2019-02-22T09:54:02.611Z,41.43
2019-02-22T09:56:32.134Z,41.37
2019-02-22T09:59:01.654Z,47.97
2019-02-22T10:01:31.093Z,45.73
2019-02-22T10:04:00.521Z,45.30
2019-02-22T10:06:30.083Z,40.10
2019-02-22T10:08:59.479Z,40.30
2019-02-22T10:11:28.931Z,41.37
2019-02-22T10:14:06.736Z,40.27
2019-02-22T10:16:32.503Z,42.10
2019-02-22T10:19:01.956Z,40.30
2019-02-22T10:21:32.066Z,41.00
2019-02-22T10:24:01.742Z,37.57
2019-02-22T10:26:31.175Z,41.07
2019-02-22T10:29:00.604Z,42.83
2019-02-22T10:31:30.283Z,41.13
2019-02-22T10:33:59.730Z,33.53
2019-02-22T10:36:30.724Z,33.83
2019-02-22T10:39:00.128Z,28.20
2019-02-22T10:41:29.702Z,33.83
2019-02-22T10:43:59.242Z,30.83
2019-02-22T10:46:28.723Z,35.90
2019-02-22T10:48:58.278Z,33.57
2019-02-22T10:51:29.644Z,28.53
2019-02-22T10:53:59.179Z,28.53
2019-02-22T10:56:29.074Z,31.57
2019-02-22T10:58:58.652Z,26.77
2019-02-22T11:01:28.284Z,26.97
2019-02-22T11:03:57.748Z,25.23
2019-02-22T11:06:27.485Z,23.30
2019-02-22T11:08:56.982Z,24.63
2019-02-22T11:11:26.494Z,20.30
2019-02-22T11:13:56.156Z,22.40
2019-02-22T11:16:26.970Z,14.17
2019-02-22T11:18:56.566Z,13.67
2019-02-22T11:21:26.036Z,7.30
2019-02-22T11:23:55.626Z,7.83
2019-02-22T11:26:27.428Z,6.60
2019-02-22T11:28:56.964Z,6.00
2019-02-22T11:31:29.516Z,7.33
2019-02-22T11:33:59.209Z,7.93
2019-02-22T11:36:28.749Z,9.00
2019-02-22T11:38:58.248Z,8.97
2019-02-22T11:41:27.768Z,9.57
2019-02-22T11:43:57.259Z,9.70
2019-02-22T11:46:26.749Z,9.37
2019-02-22T11:48:56.509Z,9.73
2019-02-22T11:51:25.934Z,9.70
2019-02-22T11:53:55.718Z,9.73
2019-02-22T11:56:25.228Z,10.20
2019-02-22T11:58:54.964Z,9.93
2019-02-22T12:01:24.423Z,9.97
2019-02-22T12:04:14.822Z,10.00
2019-02-22T12:06:44.269Z,8.90
2019-02-22T12:09:13.829Z,7.67
2019-02-22T12:11:43.225Z,7.73
2019-02-22T12:14:12.723Z,7.90
2019-02-22T12:16:43.430Z,7.87
2019-02-22T12:19:13.358Z,7.53
2019-02-22T12:21:42.862Z,7.30
2019-02-22T12:24:12.518Z,8.10
2019-02-22T12:26:42.059Z,7.27
2019-02-22T12:29:11.584Z,7.97
2019-02-22T12:31:41.000Z,7.57
2019-02-22T12:34:10.507Z,9.07
2019-02-22T12:36:39.916Z,8.10
2019-02-22T12:39:09.527Z,8.67
2019-02-22T12:41:39.318Z,8.27
2019-02-22T12:44:08.804Z,8.20
2019-02-22T12:46:38.372Z,7.57
2019-02-22T12:49:07.861Z,7.80
2019-02-22T12:51:37.318Z,8.27
2019-02-22T12:54:06.915Z,8.97
2019-02-22T12:59:07.585Z,9.67
2019-02-22T13:01:38.673Z,9.90
2019-02-22T13:04:08.138Z,9.63
2019-02-22T13:06:37.561Z,10.17
2019-02-22T13:09:07.670Z,10.30
2019-02-22T13:11:37.141Z,10.53
2019-02-22T13:14:06.685Z,11.30
2019-02-22T13:16:36.180Z,10.20
2019-02-22T13:19:06.893Z,9.13
2019-02-22T13:21:36.318Z,9.30
2019-02-22T13:24:05.952Z,9.93
2019-02-22T13:26:35.548Z,9.87
2019-02-22T13:29:05.184Z,9.60
2019-02-22T13:31:34.673Z,9.43
2019-02-22T13:34:04.236Z,9.37
2019-02-22T13:36:33.781Z,9.37
2019-02-22T13:39:04.799Z,9.80
2019-02-22T13:41:34.386Z,9.80
2019-02-22T13:44:03.830Z,9.87
2019-02-22T13:46:33.254Z,9.63
2019-02-22T13:49:02.703Z,9.50
2019-02-22T13:51:34.105Z,9.03
2019-02-22T13:54:03.290Z,8.70
2019-02-22T13:56:32.717Z,10.00
2019-02-22T13:59:02.156Z,9.80
2019-02-22T14:01:31.648Z,9.23
2019-02-22T14:04:01.082Z,9.17
2019-02-22T14:06:30.630Z,9.20
2019-02-22T14:09:00.092Z,9.47
2019-02-22T14:11:42.542Z,10.60
2019-02-22T14:14:12.064Z,10.20
2019-02-22T14:16:41.621Z,11.60
2019-02-22T14:19:11.381Z,11.73
2019-02-22T14:21:43.731Z,11.43
2019-02-22T14:24:13.149Z,12.70
2019-02-22T14:26:44.190Z,12.57
2019-02-22T14:29:13.646Z,13.20
2019-02-22T14:31:44.644Z,13.30
2019-02-22T14:34:33.615Z,13.73
2019-02-22T14:37:03.145Z,13.50
2019-02-22T14:39:35.844Z,12.27
2019-02-22T14:42:05.738Z,13.43
2019-02-22T14:44:35.351Z,13.60
2019-02-22T14:47:04.835Z,12.77
2019-02-22T14:49:34.318Z,13.50
2019-02-22T14:52:03.880Z,15.13
2019-02-22T14:54:33.328Z,13.27
2019-02-22T14:57:02.747Z,14.23
2019-02-22T14:59:32.239Z,14.47
2019-02-22T15:02:01.802Z,14.30
2019-02-22T15:04:31.222Z,13.37
2019-02-22T15:07:00.755Z,12.83
2019-02-22T15:09:30.369Z,13.00
2019-02-22T15:12:00.261Z,12.90
2019-02-22T15:14:29.794Z,12.53
2019-02-22T15:17:00.999Z,12.23
2019-02-22T15:19:31.845Z,12.07
2019-02-22T15:22:06.153Z,12.03
2019-02-22T15:24:35.598Z,12.70
2019-02-22T15:27:05.038Z,11.83
2019-02-22T15:29:34.609Z,11.03
2019-02-22T15:32:05.675Z,11.33
2019-02-22T15:34:35.146Z,10.73
2019-02-22T15:37:04.640Z,10.13
2019-02-22T15:39:34.088Z,11.00
2019-02-22T15:42:03.532Z,10.17
2019-02-22T15:44:33.133Z,10.87
2019-02-22T15:47:11.361Z,10.80
2019-02-22T15:49:33.754Z,10.57
2019-02-22T15:52:04.030Z,10.73
2019-02-22T15:54:36.361Z,11.23
2019-02-22T15:57:05.776Z,11.30
2019-02-22T15:59:36.935Z,10.70
2019-02-22T16:02:06.357Z,10.30
2019-02-22T16:04:37.442Z,12.17
2019-02-22T16:07:06.892Z,11.63
2019-02-22T16:09:36.368Z,10.10
2019-02-22T16:12:07.946Z,9.43
2019-02-22T16:14:37.465Z,10.17
2019-02-22T16:17:06.883Z,9.40
2019-02-22T16:19:36.641Z,10.47
2019-02-22T16:22:06.099Z,10.63
2019-02-22T16:24:35.552Z,10.70
2019-02-22T16:27:04.957Z,10.70
2019-02-22T16:29:34.520Z,10.73
2019-02-22T16:32:04.903Z,10.40
2019-02-22T16:34:43.063Z,11.63
2019-02-22T16:37:05.440Z,10.90
2019-02-22T16:39:34.878Z,10.07
2019-02-22T16:42:04.300Z,10.23
2019-02-22T16:44:33.841Z,10.47
2019-02-22T16:47:03.348Z,10.13
2019-02-22T16:49:32.802Z,10.33
2019-02-22T16:52:02.259Z,10.00
2019-02-22T16:54:31.714Z,10.63
2019-02-22T16:57:01.177Z,11.77
2019-02-22T16:59:30.576Z,12.93
2019-02-22T17:02:00.094Z,12.73
2019-02-22T17:04:29.671Z,13.43
2019-02-22T17:06:59.099Z,13.80
2019-02-22T17:09:28.597Z,12.90
2019-02-22T17:12:06.219Z,12.47
2019-02-22T17:14:29.245Z,13.77
2019-02-22T17:16:58.703Z,13.93
2019-02-22T17:19:28.262Z,13.53
2019-02-22T17:21:57.969Z,15.17
2019-02-22T17:24:27.479Z,14.87
2019-02-22T17:26:56.892Z,14.83
2019-02-22T17:29:26.365Z,13.30
2019-02-22T17:31:55.753Z,14.23
2019-02-22T17:34:25.216Z,13.70
2019-02-22T17:36:54.641Z,13.13
2019-02-22T17:39:24.288Z,13.53
2019-02-22T17:41:53.749Z,12.43
2019-02-22T17:44:23.178Z,14.33
2019-02-22T17:46:57.608Z,14.07
2019-02-22T17:49:23.772Z,13.47
2019-02-22T17:51:53.191Z,13.00
2019-02-22T17:54:22.618Z,14.50
2019-02-22T17:56:52.032Z,14.90
2019-02-22T17:59:21.465Z,15.00
2019-02-22T18:01:50.929Z,14.77
2019-02-22T18:04:20.363Z,14.17
2019-02-22T18:06:49.805Z,14.77
2019-02-22T18:09:19.210Z,15.23
2019-02-22T18:11:48.668Z,14.60
2019-02-22T18:14:18.182Z,13.93
2019-02-22T18:16:47.593Z,13.87
2019-02-22T18:19:17.821Z,14.47
2019-02-22T18:21:47.253Z,15.67
2019-02-22T18:24:16.939Z,13.97
2019-02-22T18:26:46.376Z,14.20
2019-02-22T18:29:15.818Z,13.77
2019-02-22T18:31:45.281Z,14.87
2019-02-22T18:34:14.846Z,14.23
2019-02-22T18:36:44.373Z,14.60
2019-02-22T18:39:13.803Z,14.03
2019-02-22T18:41:43.307Z,15.27
2019-02-22T18:44:15.499Z,15.20
2019-02-22T18:46:44.945Z,15.33
2019-02-22T18:49:14.372Z,14.90
2019-02-22T18:51:43.772Z,15.63
2019-02-22T18:54:13.302Z,15.20
2019-02-22T18:56:42.720Z,16.37
2019-02-22T18:59:12.176Z,14.53
2019-02-22T19:01:41.612Z,15.60
2019-02-22T19:04:11.073Z,15.07
2019-02-22T19:06:40.490Z,15.63
2019-02-22T19:09:09.972Z,15.57
2019-02-22T19:11:39.382Z,15.30
2019-02-22T19:14:08.896Z,16.17
2019-02-22T19:16:42.031Z,17.10
2019-02-22T19:19:14.138Z,17.53
2019-02-22T19:21:42.600Z,17.00
2019-02-22T19:24:12.025Z,17.97
2019-02-22T19:26:41.650Z,18.43
2019-02-22T19:29:11.068Z,18.97
2019-02-22T19:31:40.534Z,20.50
2019-02-22T19:34:10.062Z,20.83
2019-02-22T19:36:39.560Z,19.77
2019-02-22T19:39:08.979Z,20.27
2019-02-22T19:41:38.454Z,21.37
2019-02-22T19:44:07.976Z,22.10
2019-02-22T19:46:37.424Z,23.23
2019-02-22T19:49:06.879Z,22.60
2019-02-22T19:51:36.302Z,23.17
2019-02-22T19:54:05.823Z,24.83
2019-02-22T19:56:35.288Z,24.97
2019-02-22T19:59:04.686Z,24.80
2019-02-22T20:01:34.145Z,25.20
2019-02-22T20:04:03.642Z,26.67
2019-02-22T20:06:33.156Z,27.23
2019-02-22T20:09:02.579Z,28.50
2019-02-22T20:11:32.066Z,27.87
2019-02-22T20:14:02.457Z,28.43
2019-02-22T20:16:31.886Z,27.97
2019-02-22T20:19:01.335Z,29.43
2019-02-22T20:21:32.358Z,28.80
2019-02-22T20:24:01.805Z,29.93
2019-02-22T20:26:31.213Z,30.10
2019-02-22T20:29:01.010Z,30.20
2019-02-22T20:31:30.878Z,30.07
2019-02-22T20:34:00.334Z,30.13
2019-02-22T20:36:29.964Z,31.80
2019-02-22T20:39:12.462Z,30.43
2019-02-22T20:41:41.889Z,30.93
2019-02-22T20:44:11.361Z,28.93
2019-02-22T20:46:40.768Z,30.83
2019-02-22T20:49:10.172Z,31.70
2019-02-22T20:51:39.591Z,32.37
2019-02-22T20:54:10.581Z,31.13
2019-02-22T20:56:40.067Z,32.70
2019-02-22T20:59:12.505Z,31.27
2019-02-22T21:01:41.897Z,31.57
2019-02-22T21:04:11.301Z,31.03
2019-02-22T21:06:40.751Z,30.60
2019-02-22T21:09:10.337Z,28.93
2019-02-22T21:11:39.731Z,31.87
2019-02-22T21:14:09.120Z,31.20
2019-02-22T21:16:38.525Z,29.70
2019-02-22T21:19:09.564Z,31.13
2019-02-22T21:21:39.131Z,32.13
2019-02-22T21:24:08.587Z,32.47
2019-02-22T21:26:37.989Z,31.53
2019-02-22T21:29:07.882Z,31.00
2019-02-22T21:31:37.327Z,30.87
2019-02-22T21:34:06.763Z,32.00
2019-02-22T21:36:36.194Z,31.93
2019-02-22T21:39:06.128Z,31.90
2019-02-22T21:41:35.519Z,33.17
2019-02-22T21:44:05.017Z,31.80
2019-02-22T21:46:34.446Z,29.27
2019-02-22T21:49:03.862Z,31.33
2019-02-22T21:51:33.340Z,30.07
2019-02-22T21:54:02.841Z,31.37
2019-02-22T21:56:32.288Z,30.73
2019-02-22T21:59:01.717Z,30.23
2019-02-22T22:01:31.144Z,31.23
2019-02-22T22:04:00.562Z,30.73
2019-02-22T22:06:29.989Z,30.93
2019-02-22T22:08:59.516Z,29.90
2019-02-22T22:11:28.941Z,30.70
2019-02-22T22:13:58.407Z,29.83
2019-02-22T22:16:27.789Z,30.40
2019-02-22T22:18:57.213Z,29.80
2019-02-22T22:21:26.625Z,30.17
2019-02-22T22:23:58.746Z,30.27
2019-02-22T22:26:28.152Z,28.87
2019-02-22T22:28:59.523Z,30.33
2019-02-22T22:31:30.195Z,30.17
2019-02-22T22:33:59.636Z,30.33
2019-02-22T22:36:29.042Z,30.57
2019-02-22T22:38:58.450Z,26.33
2019-02-22T22:41:27.899Z,32.03
2019-02-22T22:43:57.286Z,30.63
2019-02-22T22:46:36.588Z,28.93
2019-02-22T22:48:57.855Z,27.27
2019-02-22T22:51:27.303Z,28.97
2019-02-22T22:53:56.720Z,28.50
2019-02-22T22:56:26.189Z,28.03
2019-02-22T22:58:55.567Z,27.60
2019-02-22T23:01:25.276Z,29.40
2019-02-22T23:03:54.783Z,28.30
2019-02-22T23:06:24.201Z,27.93
2019-02-22T23:08:54.520Z,27.50
2019-02-22T23:11:23.931Z,28.23
2019-02-22T23:13:54.978Z,26.57
2019-02-22T23:16:24.412Z,26.17
2019-02-22T23:19:01.383Z,26.27
2019-02-22T23:21:24.954Z,24.40
2019-02-22T23:23:54.370Z,26.17
2019-02-22T23:26:25.372Z,25.30
2019-02-22T23:28:54.837Z,24.43
2019-02-22T23:31:24.294Z,25.13
2019-02-22T23:33:54.060Z,23.83
2019-02-22T23:36:23.543Z,24.77
2019-02-22T23:38:54.120Z,22.03
2019-02-22T23:41:25.164Z,23.83
2019-02-22T23:43:54.636Z,23.77
2019-02-22T23:46:24.103Z,22.70
2019-02-22T23:48:53.526Z,22.43
2019-02-22T23:51:22.951Z,22.93
2019-02-22T23:53:52.372Z,21.93
2019-02-22T23:56:21.789Z,22.47
2019-02-22T23:58:51.243Z,22.13
